Time;durP1;ratioP1;P1;durP2;ratioP2;P2;SDS_P1;SDS_P2;PMS_P1;PMS_P2;Temp;Humidity;BMP_temperature;BMP_pressure;BME280_temperature;BME280_humidity;BME280_pressure;Samples;Min_cycle;Max_cycle;Signal;HPM_P1;HPM_P2
2023/03/14 00:08:33;;;;;;;9.50;1.45;;;10.00;99.90;;;;;;6216925;23;20021;-94
2023/03/14 00:11:11;;;;;;;5.75;1.30;;;9.90;99.90;;;;;;6166673;23;20028;-89
2023/03/14 00:13:37;;;;;;;8.98;1.23;;;10.00;99.90;;;;;;6166197;23;20024;-92
2023/03/14 00:16:09;;;;;;;9.55;1.50;;;10.00;99.90;;;;;;6166211;23;20016;-93
2023/03/14 00:18:35;;;;;;;6.57;1.38;;;10.00;99.90;;;;;;6166026;23;20016;-91
2023/03/14 00:21:01;;;;;;;7.90;1.50;;;10.00;99.90;;;;;;6166476;23;20083;-95
2023/03/14 00:26:06;;;;;;;8.32;1.50;;;10.10;99.90;;;;;;6185512;23;20021;-86
2023/03/14 00:28:32;;;;;;;8.80;1.60;;;10.10;99.90;;;;;;6135143;23;20413;-89
2023/03/14 00:30:57;;;;;;;4.80;0.93;;;10.20;99.90;;;;;;6159701;23;20051;-88
2023/03/14 00:33:24;;;;;;;10.27;2.23;;;10.20;99.90;;;;;;6158959;23;20029;-85
2023/03/14 00:35:55;;;;;;;10.82;1.90;;;10.30;99.90;;;;;;6135168;23;20075;-87
2023/03/14 01:03:06;;;;;;;9.90;2.08;;;10.30;99.90;;;;;;6218340;23;20021;-95
2023/03/14 01:05:33;;;;;;;7.65;1.23;;;10.30;99.90;;;;;;6167684;23;20056;-96
2023/03/14 01:07:59;;;;;;;6.75;1.48;;;10.30;99.90;;;;;;6143280;23;20013;-90
2023/03/14 01:10:25;;;;;;;7.25;1.50;;;10.30;99.90;;;;;;6165905;23;20021;-92
2023/03/14 01:12:51;;;;;;;7.07;1.07;;;10.40;99.90;;;;;;6167524;23;20024;-93
2023/03/14 01:15:17;;;;;;;8.13;1.50;;;10.40;99.90;;;;;;6165823;23;20248;-92
2023/03/14 01:17:43;;;;;;;7.13;1.65;;;10.40;99.90;;;;;;6165603;23;20139;-91
2023/03/14 01:20:12;;;;;;;6.65;1.42;;;10.40;99.90;;;;;;6167237;23;20016;-96
2023/03/14 01:22:39;;;;;;;7.43;1.50;;;10.40;99.90;;;;;;6165557;23;20077;-90
2023/03/14 01:25:13;;;;;;;7.20;1.58;;;10.50;99.90;;;;;;6140258;23;20051;-93
2023/03/14 01:27:38;;;;;;;7.70;1.10;;;10.50;99.90;;;;;;6166419;23;20068;-95
2023/03/14 01:30:05;;;;;;;9.50;1.20;;;10.50;99.90;;;;;;6168493;23;20020;-92
2023/03/14 01:32:31;;;;;;;6.15;1.15;;;10.50;99.90;;;;;;6165915;23;20021;-92
2023/03/14 01:34:57;;;;;;;7.95;1.42;;;10.60;99.90;;;;;;6166572;23;20020;-94
2023/03/14 01:37:22;;;;;;;5.50;0.90;;;10.60;99.90;;;;;;6167834;23;20024;-94
2023/03/14 01:39:48;;;;;;;5.20;1.07;;;10.60;99.90;;;;;;6141377;23;20252;-94
2023/03/14 01:42:15;;;;;;;5.53;0.97;;;10.60;99.90;;;;;;6166469;23;20079;-92
2023/03/14 01:44:56;;;;;;;;;;;10.70;99.90;;;;;;6167476;23;20009;-92
2023/03/14 01:47:25;;;;;;;7.22;1.17;;;10.70;99.90;;;;;;6167997;23;19991;-93
2023/03/14 01:50:03;;;;;;;8.68;0.90;;;10.70;99.90;;;;;;6167369;23;20342;-92
2023/03/14 01:52:35;;;;;;;5.53;1.05;;;10.70;99.90;;;;;;6167270;23;20027;-89
2023/03/14 01:55:06;;;;;;;4.90;1.20;;;10.70;99.90;;;;;;6166717;23;20020;-92
2023/03/14 01:57:44;;;;;;;3.67;1.30;;;10.70;99.90;;;;;;6191536;23;20017;-90
2023/03/14 02:00:15;;;;;;;4.65;0.82;;;10.70;99.90;;;;;;6166670;23;20017;-92
2023/03/14 02:02:47;;;;;;;6.32;1.20;;;10.70;99.90;;;;;;6192254;23;20013;-93
2023/03/14 02:05:15;;;;;;;4.13;1.08;;;10.70;99.90;;;;;;6189566;23;20070;-89
2023/03/14 02:07:51;;;;;;;5.07;0.85;;;10.70;99.90;;;;;;6166569;23;20021;-88
2023/03/14 02:10:19;;;;;;;2.85;0.52;;;10.70;99.90;;;;;;6166853;23;20016;-91
2023/03/14 02:12:48;;;;;;;6.07;0.90;;;10.70;99.90;;;;;;6165839;23;20054;-91
2023/03/14 02:15:15;;;;;;;5.40;0.60;;;10.60;99.90;;;;;;6166398;23;20430;-91
2023/03/14 02:17:43;;;;;;;4.95;0.70;;;10.60;99.90;;;;;;6166311;23;20020;-92
2023/03/14 02:20:27;;;;;;;4.10;1.05;;;10.60;99.90;;;;;;6166307;23;20409;-90
2023/03/14 02:22:53;;;;;;;5.70;1.08;;;10.50;99.90;;;;;;6217577;23;20043;-91
2023/03/14 02:25:22;;;;;;;3.83;1.00;;;10.50;99.90;;;;;;6166599;23;20059;-91
2023/03/14 02:27:48;;;;;;;5.05;1.15;;;10.50;99.90;;;;;;6191010;23;20020;-87
2023/03/14 02:30:16;;;;;;;4.82;0.90;;;10.50;99.90;;;;;;6166683;23;20020;-91
2023/03/14 02:32:46;;;;;;;4.85;0.65;;;10.40;99.90;;;;;;6167072;23;20016;-88
2023/03/14 02:35:16;;;;;;;4.72;0.55;;;10.40;99.90;;;;;;6191092;23;20012;-93
2023/03/14 02:37:49;;;;;;;5.15;0.68;;;10.30;99.90;;;;;;6165986;23;20059;-91
2023/03/14 02:40:15;;;;;;;5.13;0.80;;;10.30;99.90;;;;;;6166440;23;20025;-91
2023/03/14 02:42:41;;;;;;;6.95;1.10;;;10.30;99.90;;;;;;6215864;23;20009;-89
2023/03/14 02:45:10;;;;;;;4.37;0.83;;;10.20;99.90;;;;;;6142235;23;20208;-93
2023/03/14 02:47:41;;;;;;;4.43;0.85;;;10.30;99.90;;;;;;6191142;23;20019;-93
2023/03/14 02:50:18;;;;;;;5.82;1.00;;;10.20;99.90;;;;;;6166168;23;20021;-92
2023/03/14 02:52:44;;;;;;;6.88;1.02;;;10.30;99.90;;;;;;6166119;23;20024;-95
2023/03/14 02:55:10;;;;;;;4.30;0.77;;;10.20;99.90;;;;;;6192001;23;20092;-91
2023/03/14 02:57:35;;;;;;;3.43;0.70;;;10.20;99.90;;;;;;6166286;23;20023;-93
2023/03/14 03:00:04;;;;;;;3.53;0.80;;;10.20;99.90;;;;;;6166222;23;20256;-90
2023/03/14 03:02:31;;;;;;;2.65;0.63;;;10.10;99.90;;;;;;6166202;23;20386;-90
2023/03/14 03:04:56;;;;;;;2.80;0.95;;;10.10;99.90;;;;;;6165728;23;20023;-90
2023/03/14 03:07:22;;;;;;;5.43;1.00;;;10.10;99.90;;;;;;6165881;23;20020;-90
2023/03/14 03:09:48;;;;;;;4.43;0.73;;;10.10;99.90;;;;;;6141333;23;20013;-91
2023/03/14 03:12:14;;;;;;;4.37;0.77;;;10.10;99.90;;;;;;6166106;23;20272;-91
2023/03/14 03:14:40;;;;;;;4.83;0.90;;;10.00;99.90;;;;;;6141911;23;20020;-95
2023/03/14 03:17:06;;;;;;;4.45;0.88;;;10.10;99.90;;;;;;6165850;23;20477;-92
2023/03/14 03:19:33;;;;;;;5.22;1.13;;;10.00;99.90;;;;;;6166385;23;20147;-95
2023/03/14 03:21:59;;;;;;;4.35;0.90;;;10.00;99.90;;;;;;6166235;23;20021;-94
2023/03/14 03:24:26;;;;;;;5.90;0.77;;;10.00;99.90;;;;;;6167183;23;20019;-93
2023/03/14 03:26:52;;;;;;;2.22;0.80;;;9.90;99.90;;;;;;6142042;23;20055;-93
2023/03/14 03:29:18;;;;;;;6.50;1.08;;;9.90;99.90;;;;;;6167552;23;20039;-95
2023/03/14 03:31:45;;;;;;;6.57;1.40;;;9.90;99.90;;;;;;6166454;23;20091;-93
2023/03/14 03:34:12;;;;;;;4.65;0.90;;;9.80;99.90;;;;;;6165961;23;20298;-92
2023/03/14 03:36:37;;;;;;;6.70;1.42;;;9.80;99.90;;;;;;6165811;23;20386;-95
2023/03/14 03:39:03;;;;;;;7.87;1.20;;;9.70;99.90;;;;;;6141758;23;20021;-93
2023/03/14 03:41:51;;;;;;;5.70;0.93;;;9.60;99.90;;;;;;6165737;23;20256;-93
2023/03/14 03:44:16;;;;;;;2.92;0.90;;;9.60;99.90;;;;;;6190549;23;20075;-93
2023/03/14 03:46:44;;;;;;;4.67;1.13;;;9.50;99.90;;;;;;6165891;23;20017;-94
2023/03/14 03:49:10;;;;;;;4.53;1.13;;;9.50;99.90;;;;;;6165915;23;20476;-90
2023/03/14 03:51:36;;;;;;;5.13;1.43;;;9.50;99.90;;;;;;6165782;23;20021;-96
2023/03/14 03:54:01;;;;;;;7.13;1.13;;;9.50;99.90;;;;;;6165544;23;20021;-89
2023/03/14 04:00:42;;;;;;;7.15;1.20;;;9.40;99.90;;;;;;6217528;23;20071;-91
2023/03/14 04:03:08;;;;;;;5.63;1.40;;;9.40;99.90;;;;;;6165269;23;20017;-92
2023/03/14 04:05:34;;;;;;;2.80;0.93;;;9.40;99.90;;;;;;6165085;23;20442;-90
2023/03/14 04:08:00;;;;;;;7.13;1.50;;;9.40;99.90;;;;;;6116489;23;20020;-96
2023/03/14 04:10:26;;;;;;;2.80;0.82;;;9.40;99.90;;;;;;6166068;23;20013;-93
2023/03/14 04:13:01;;;;;;;3.47;1.10;;;9.40;99.90;;;;;;6165288;23;20099;-86
2023/03/14 04:15:26;;;;;;;6.55;1.27;;;9.40;99.90;;;;;;6165325;23;20335;-90
2023/03/14 04:17:56;;;;;;;8.13;1.33;;;9.40;99.90;;;;;;6140137;23;20075;-89
2023/03/14 04:20:22;;;;;;;5.65;1.33;;;9.40;99.90;;;;;;6189630;23;20074;-87
2023/03/14 04:22:48;;;;;;;4.10;1.43;;;9.40;99.90;;;;;;6140205;23;20013;-90
2023/03/14 04:25:13;;;;;;;7.97;2.00;;;9.40;99.90;;;;;;6140394;23;20104;-88
2023/03/14 04:30:14;;;;;;;4.47;1.20;;;9.40;99.90;;;;;;6210375;23;20028;-91
2023/03/14 04:32:40;;;;;;;7.57;1.53;;;9.40;99.90;;;;;;6160182;23;20025;-93
2023/03/14 04:35:06;;;;;;;5.47;1.20;;;9.40;99.90;;;;;;6160897;23;20068;-93
2023/03/14 04:37:32;;;;;;;6.15;1.67;;;9.40;99.90;;;;;;6135880;23;20091;-93
2023/03/14 04:39:58;;;;;;;5.63;1.43;;;9.40;99.90;;;;;;6162450;23;20024;-95
2023/03/14 04:46:28;;;;;;;5.35;1.20;;;9.40;99.90;;;;;;6187831;23;20019;-94
2023/03/14 04:48:55;;;;;;;4.93;1.58;;;9.30;99.90;;;;;;6165017;23;20087;-93
2023/03/14 04:51:23;;;;;;;4.95;2.10;;;9.30;99.90;;;;;;6161901;23;20048;-95
2023/03/14 04:53:48;;;;;;;7.60;2.05;;;9.30;99.90;;;;;;6161234;23;20017;-91
2023/03/14 04:56:24;;;;;;;7.23;2.50;;;9.30;99.90;;;;;;6135538;23;20021;-89
2023/03/14 04:58:49;;;;;;;6.07;1.90;;;9.30;99.90;;;;;;6159438;23;20391;-89
2023/03/14 05:01:15;;;;;;;6.17;2.17;;;9.20;99.90;;;;;;6159211;23;20017;-92
2023/03/14 05:03:41;;;;;;;7.07;2.37;;;9.20;99.90;;;;;;6135330;23;20021;-94
2023/03/14 05:06:06;;;;;;;5.77;2.10;;;9.20;99.90;;;;;;6184480;23;20335;-91
2023/03/14 05:08:32;;;;;;;7.40;2.60;;;9.20;99.90;;;;;;6159625;23;20059;-88
2023/03/14 05:11:16;;;;;;;6.27;1.97;;;9.20;99.90;;;;;;6184910;23;20024;-88
2023/03/14 05:13:42;;;;;;;7.45;2.42;;;9.20;99.90;;;;;;6184003;23;20033;-94
2023/03/14 05:16:10;;;;;;;6.73;2.30;;;9.20;99.90;;;;;;6134705;23;20031;-89
2023/03/14 05:18:35;;;;;;;5.43;2.10;;;9.20;99.90;;;;;;6184063;23;20021;-87
2023/03/14 05:21:02;;;;;;;5.70;2.10;;;9.10;99.90;;;;;;6160568;23;20018;-89
2023/03/14 05:23:58;;;;;;;8.57;2.17;;;9.10;99.90;;;;;;6136661;23;20316;-85
2023/03/14 05:26:42;;;;;;;7.85;1.88;;;9.10;99.90;;;;;;6160159;23;20024;-87
2023/03/14 05:29:08;;;;;;;5.57;1.85;;;9.10;99.90;;;;;;6161167;23;20443;-85
2023/03/14 05:31:34;;;;;;;4.40;2.00;;;9.10;99.90;;;;;;6187068;23;20023;-85
2023/03/14 05:33:59;;;;;;;6.57;1.73;;;9.10;99.90;;;;;;6136334;23;20096;-86
2023/03/14 05:36:25;;;;;;;4.20;1.60;;;9.10;99.90;;;;;;6112063;23;20024;-87
2023/03/14 05:38:51;;;;;;;4.93;2.00;;;9.10;99.90;;;;;;6112046;23;20021;-84
2023/03/14 05:41:16;;;;;;;5.13;2.00;;;9.10;99.90;;;;;;6136574;23;20342;-85
2023/03/14 05:43:42;;;;;;;6.07;1.70;;;9.10;99.90;;;;;;6136658;23;20017;-85
2023/03/14 05:46:08;;;;;;;3.73;1.60;;;9.00;99.90;;;;;;6136278;23;20021;-84
2023/03/14 05:48:33;;;;;;;5.40;1.80;;;9.00;99.90;;;;;;6160827;23;20056;-87
2023/03/14 05:50:59;;;;;;;5.10;1.80;;;9.00;99.90;;;;;;6136667;23;20017;-83
2023/03/14 05:53:25;;;;;;;3.97;1.33;;;9.00;99.90;;;;;;6161370;23;20024;-90
2023/03/14 05:55:55;;;;;;;6.00;1.90;;;9.10;99.90;;;;;;6187443;23;20013;-87
2023/03/14 05:58:21;;;;;;;3.90;1.25;;;9.00;99.90;;;;;;6160527;23;20013;-87
2023/03/14 06:00:47;;;;;;;4.28;1.65;;;9.00;99.90;;;;;;6161108;23;20013;-92
2023/03/14 06:03:12;;;;;;;4.83;1.57;;;9.00;99.90;;;;;;6136714;23;20088;-91
2023/03/14 06:05:38;;;;;;;5.03;1.77;;;9.00;99.90;;;;;;6112015;23;20009;-87
2023/03/14 06:08:04;;;;;;;4.37;1.43;;;9.00;99.90;;;;;;6161069;23;20017;-85
2023/03/14 06:10:29;;;;;;;3.23;1.20;;;9.00;99.90;;;;;;6161008;23;20505;-89
2023/03/14 06:12:55;;;;;;;4.97;1.47;;;9.00;99.90;;;;;;6178797;23;20279;-88
2023/03/14 06:15:21;;;;;;;3.80;1.33;;;9.00;99.90;;;;;;6191005;23;20017;-91
2023/03/14 06:17:46;;;;;;;2.67;0.80;;;9.00;99.90;;;;;;6166803;23;20020;-90
2023/03/14 06:20:12;;;;;;;2.77;1.00;;;9.00;99.90;;;;;;6192145;23;20013;-87
2023/03/14 06:23:06;;;;;;;2.13;0.73;;;9.00;99.90;;;;;;6142212;23;20087;-91
2023/03/14 06:25:51;;;;;;;3.10;0.82;;;9.00;99.90;;;;;;6167826;23;20255;-96
2023/03/14 06:28:17;;;;;;;1.42;0.50;;;9.00;99.90;;;;;;6191289;23;20017;-94
2023/03/14 06:30:42;;;;;;;3.55;0.90;;;9.00;99.90;;;;;;6190807;23;20016;-83
2023/03/14 06:33:08;;;;;;;2.17;0.40;;;9.00;99.90;;;;;;6217146;23;20023;-86
2023/03/14 06:35:34;;;;;;;3.40;0.23;;;8.90;99.90;;;;;;6192159;23;20044;-88
2023/03/14 06:38:00;;;;;;;1.07;0.20;;;8.70;99.90;;;;;;6218368;23;20024;-81
2023/03/14 06:40:25;;;;;;;4.53;0.47;;;8.50;99.90;;;;;;6217943;23;20013;-86
2023/03/14 06:42:51;;;;;;;2.27;0.27;;;8.30;99.90;;;;;;6167307;23;20048;-84
2023/03/14 06:45:17;;;;;;;3.87;0.40;;;8.10;99.90;;;;;;6219138;23;20012;-95
2023/03/14 06:47:43;;;;;;;4.30;0.50;;;7.90;99.90;;;;;;6217806;23;20040;-85
2023/03/14 06:50:10;;;;;;;7.53;0.50;;;7.80;99.90;;;;;;6191646;23;20015;-85
2023/03/14 06:52:36;;;;;;;;;;;7.50;99.90;;;;;;6191898;23;20103;-93
2023/03/14 06:55:01;;;;;;;2.97;0.45;;;7.30;99.90;;;;;;6218188;23;19916;-90
2023/03/14 06:57:27;;;;;;;3.67;0.40;;;7.10;99.90;;;;;;6166419;23;20016;-90
2023/03/14 06:59:53;;;;;;;2.20;0.30;;;6.90;99.90;;;;;;6141564;23;20021;-91
2023/03/14 07:02:18;;;;;;;2.70;0.20;;;6.60;99.90;;;;;;6166167;23;20044;-96
2023/03/14 07:04:44;;;;;;;3.03;0.30;;;6.30;99.90;;;;;;6191129;23;20021;-87
2023/03/14 07:07:10;;;;;;;4.10;0.50;;;6.10;99.90;;;;;;6166126;23;20054;-90
2023/03/14 07:09:36;;;;;;;0.93;0.30;;;5.90;99.90;;;;;;6190919;23;20102;-86
2023/03/14 07:12:04;;;;;;;2.67;0.20;;;5.70;99.90;;;;;;6171668;23;20075;-91
2023/03/14 07:14:30;;;;;;;4.05;0.40;;;5.60;99.90;;;;;;6135471;23;20072;-88
2023/03/14 07:16:56;;;;;;;2.33;0.40;;;5.50;99.90;;;;;;6160269;23;20072;-86
2023/03/14 07:19:22;;;;;;;5.15;1.65;;;5.30;99.90;;;;;;6135868;23;20016;-88
2023/03/14 07:21:47;;;;;;;3.87;0.27;;;5.20;99.90;;;;;;6135576;23;20048;-89
2023/03/14 07:24:13;;;;;;;0.20;0.00;;;5.20;99.90;;;;;;6111218;23;20427;-87
2023/03/14 07:26:52;;;;;;;1.20;0.10;;;5.10;99.90;;;;;;6135637;23;20040;-90
2023/03/14 07:29:42;;;;;;;0.68;0.10;;;5.00;99.90;;;;;;6136390;23;20021;-88
2023/03/14 07:32:23;;;;;;;2.90;0.40;;;4.90;99.90;;;;;;6136310;23;20096;-94
2023/03/14 07:34:49;;;;;;;1.65;0.20;;;4.80;99.90;;;;;;6112416;23;20024;-91
2023/03/14 07:37:15;;;;;;;1.10;0.27;;;4.80;99.90;;;;;;6136203;23;20017;-91
2023/03/14 07:39:40;;;;;;;0.10;0.00;;;4.70;99.90;;;;;;6136279;23;20334;-89
2023/03/14 07:42:06;;;;;;;0.57;0.10;;;4.70;99.90;;;;;;6135987;23;20009;-91
2023/03/14 07:44:32;;;;;;;0.03;0.00;;;4.70;99.90;;;;;;6136357;23;20068;-91
2023/03/14 07:46:58;;;;;;;1.10;0.10;;;4.60;99.90;;;;;;6136097;23;20024;-94
2023/03/14 07:49:24;;;;;;;0.30;0.07;;;4.60;99.90;;;;;;6135769;23;20021;-94
2023/03/14 07:51:50;;;;;;;1.20;0.10;;;4.60;99.90;;;;;;6135632;23;20026;-91
2023/03/14 07:54:16;;;;;;;0.60;0.13;;;4.60;99.90;;;;;;6159681;23;20442;-86
2023/03/14 07:56:42;;;;;;;0.90;0.25;;;4.60;99.90;;;;;;6160105;23;20019;-91
2023/03/14 07:59:07;;;;;;;0.83;0.10;;;4.70;99.90;;;;;;6134972;23;20056;-94
2023/03/14 08:01:33;;;;;;;0.93;0.10;;;4.70;99.90;;;;;;6160143;23;20013;-87
2023/03/14 08:03:59;;;;;;;1.90;0.17;;;4.70;99.90;;;;;;6186243;23;20017;-90
2023/03/14 08:06:25;;;;;;;0.10;0.10;;;4.70;99.90;;;;;;6111021;23;20249;-88
2023/03/14 08:08:51;;;;;;;0.73;0.00;;;4.70;99.90;;;;;;6159626;23;20016;-87
2023/03/14 08:11:16;;;;;;;5.07;0.40;;;4.70;99.90;;;;;;6185738;23;20451;-92
2023/03/14 08:13:49;;;;;;;4.80;0.30;;;4.80;99.90;;;;;;6159979;23;20021;-89
2023/03/14 08:16:18;;;;;;;1.45;0.20;;;4.90;99.90;;;;;;6159802;23;20016;-87
2023/03/14 08:18:44;;;;;;;0.88;0.10;;;4.90;99.90;;;;;;6159743;23;20052;-87
2023/03/14 08:21:10;;;;;;;1.35;0.10;;;4.90;99.90;;;;;;6110933;23;20028;-88
2023/03/14 08:23:36;;;;;;;0.63;0.10;;;5.00;99.90;;;;;;6186122;23;20013;-88
2023/03/14 08:26:02;;;;;;;0.20;0.10;;;5.00;99.90;;;;;;6186632;23;20017;-90
2023/03/14 08:28:30;;;;;;;1.35;0.13;;;5.10;99.90;;;;;;6159774;23;20024;-90
2023/03/14 08:30:57;;;;;;;1.50;0.30;;;5.20;99.90;;;;;;6135035;23;20021;-91
2023/03/14 08:33:28;;;;;;;;;;;5.20;99.90;;;;;;6160192;23;20025;-94
2023/03/14 08:35:55;;;;;;;2.35;0.40;;;5.20;99.90;;;;;;6135135;23;19916;-93
2023/03/14 08:38:21;;;;;;;4.88;0.35;;;5.30;99.90;;;;;;6110762;23;20017;-88
2023/03/14 08:40:47;;;;;;;2.20;0.60;;;5.30;99.90;;;;;;6135479;23;20048;-87
2023/03/14 08:43:13;;;;;;;2.73;0.30;;;5.30;99.90;;;;;;6110882;23;20017;-86
2023/03/14 08:45:38;;;;;;;4.37;0.40;;;5.40;99.90;;;;;;6159533;23;20072;-93
2023/03/14 08:52:26;;;;;;;2.75;0.50;;;5.50;99.90;;;;;;6185641;23;20020;-88
2023/03/14 08:54:51;;;;;;;3.13;0.30;;;5.60;99.90;;;;;;6136107;23;20087;-88
2023/03/14 08:57:27;;;;;;;3.33;0.70;;;5.70;99.90;;;;;;6138983;23;20368;-91
2023/03/14 08:59:55;;;;;;;3.85;0.80;;;5.70;99.90;;;;;;6114321;23;20075;-93
2023/03/14 09:02:26;;;;;;;7.88;0.50;;;5.80;99.90;;;;;;6188936;23;20016;-90
2023/03/14 09:04:52;;;;;;;4.70;0.68;;;5.80;99.90;;;;;;6137141;23;20020;-87
2023/03/14 09:07:19;;;;;;;1.45;0.52;;;5.90;99.90;;;;;;6161431;23;20020;-95
2023/03/14 09:09:45;;;;;;;7.30;1.02;;;5.90;99.90;;;;;;6163095;23;20017;-89
2023/03/14 09:12:11;;;;;;;4.93;0.98;;;6.00;99.90;;;;;;6138127;23;20339;-87
2023/03/14 09:14:37;;;;;;;6.05;0.88;;;6.00;99.90;;;;;;6089766;23;20497;-88
2023/03/14 09:17:04;;;;;;;8.63;0.90;;;6.20;99.90;;;;;;6114030;23;20013;-91
2023/03/14 09:19:31;;;;;;;4.57;1.08;;;6.30;99.90;;;;;;6163998;23;20067;-92
2023/03/14 09:21:56;;;;;;;4.53;0.65;;;6.40;99.90;;;;;;6113334;23;20021;-95
2023/03/14 09:24:22;;;;;;;6.70;0.90;;;6.50;99.90;;;;;;6138530;23;20076;-95
2023/03/14 09:26:48;;;;;;;8.77;0.90;;;6.50;99.90;;;;;;6189282;23;20049;-96
2023/03/14 09:29:13;;;;;;;2.50;0.40;;;6.60;99.90;;;;;;6162930;23;20508;-95
2023/03/14 09:31:39;;;;;;;5.33;0.90;;;6.50;99.90;;;;;;6189296;23;20059;-95
2023/03/14 09:34:08;;;;;;;6.57;0.73;;;6.50;99.90;;;;;;6114222;23;20438;-89
2023/03/14 09:36:33;;;;;;;4.22;0.63;;;6.50;99.90;;;;;;6137167;23;20021;-94
2023/03/14 09:38:59;;;;;;;5.63;0.80;;;6.40;99.90;;;;;;6162763;23;20028;-88
2023/03/14 09:41:29;;;;;;;6.70;1.20;;;6.40;99.90;;;;;;6163084;23;20068;-89
2023/03/14 09:44:14;;;;;;;5.75;1.33;;;6.30;99.90;;;;;;6162865;23;20052;-94
2023/03/14 09:46:43;;;;;;;5.47;0.68;;;6.40;99.90;;;;;;6189255;23;20490;-84
2023/03/14 09:53:36;;;;;;;7.10;0.77;;;6.50;99.90;;;;;;6163339;23;20473;-85
2023/03/14 09:56:02;;;;;;;5.57;0.80;;;6.50;99.90;;;;;;6138286;23;20028;-95
2023/03/14 09:58:29;;;;;;;9.93;1.53;;;6.50;99.90;;;;;;6162162;23;20451;-86
2023/03/14 10:00:57;;;;;;;5.07;0.80;;;6.60;99.90;;;;;;6114007;23;20390;-86
2023/03/14 10:03:44;;;;;;;11.02;1.83;;;6.60;99.90;;;;;;6162783;23;20474;-88
2023/03/14 10:06:13;;;;;;;3.13;0.80;;;6.60;99.90;;;;;;6137398;23;20048;-87
2023/03/14 10:08:43;;;;;;;3.17;0.68;;;6.60;99.90;;;;;;6112060;23;20024;-89
2023/03/14 10:11:18;;;;;;;4.07;0.70;;;6.50;99.90;;;;;;6136679;23;20024;-89
2023/03/14 10:14:06;;;;;;;7.30;1.05;;;6.50;99.90;;;;;;6136512;23;20017;-88
2023/03/14 10:16:33;;;;;;;;;;;6.40;99.90;;;;;;6161584;23;20044;-92
2023/03/14 10:19:10;;;;;;;6.88;1.42;;;6.40;99.90;;;;;;6136601;23;19917;-91
2023/03/14 10:21:52;;;;;;;4.07;0.70;;;6.40;99.90;;;;;;6152633;23;20024;-90
2023/03/14 10:24:30;;;;;;;6.13;1.08;;;6.40;99.90;;;;;;6136943;23;20021;-92
2023/03/14 10:27:05;;;;;;;6.43;0.70;;;6.40;99.90;;;;;;6136985;23;20017;-90
2023/03/14 10:29:32;;;;;;;7.03;0.80;;;6.50;99.90;;;;;;6136444;23;20017;-91
2023/03/14 10:35:17;;;;;;;6.50;0.93;;;6.60;99.90;;;;;;6213946;23;20025;-91
2023/03/14 10:37:51;;;;;;;;;;;6.70;99.90;;;;;;6167333;23;20093;-96
2023/03/14 10:40:20;;;;;;;7.80;1.00;;;6.70;99.90;;;;;;6166353;23;19961;-91
2023/03/14 10:42:49;;;;;;;9.10;0.93;;;6.70;99.90;;;;;;6166630;23;20080;-94
2023/03/14 10:45:41;;;;;;;2.03;0.32;;;6.70;99.90;;;;;;6119223;23;20374;-95
2023/03/14 10:52:24;;;;;;;;;;;6.80;99.90;;;;;;6219430;23;20419;-91
2023/03/14 10:54:57;;;;;;;2.45;0.28;;;7.00;99.90;;;;;;6165420;23;19922;-91
2023/03/14 10:57:23;;;;;;;2.88;0.63;;;7.00;99.90;;;;;;6190868;23;20016;-88
2023/03/14 10:59:49;;;;;;;4.70;0.57;;;6.80;99.90;;;;;;6191434;23;20140;-94
2023/03/14 11:02:32;;;;;;;6.63;0.63;;;6.80;99.90;;;;;;6140497;23;20016;-88
2023/03/14 11:05:30;;;;;;;5.07;0.45;;;6.70;99.90;;;;;;6191583;23;20020;-93
2023/03/14 11:10:34;;;;;;;3.85;0.88;;;6.90;99.90;;;;;;6216107;23;20025;-87
2023/03/14 11:13:06;;;;;;;3.35;0.52;;;7.10;99.90;;;;;;6165218;23;20017;-84
2023/03/14 11:15:40;;;;;;;3.13;0.43;;;7.10;99.90;;;;;;6165149;23;20095;-86
2023/03/14 11:18:23;;;;;;;3.30;0.70;;;6.90;99.90;;;;;;6164830;23;20052;-84
2023/03/14 11:21:11;;;;;;;2.92;0.30;;;7.00;99.90;;;;;;6189878;23;20179;-83
2023/03/14 11:24:20;;;;;;;4.20;0.47;;;7.10;99.90;;;;;;6189752;23;20017;-83
2023/03/14 11:27:26;;;;;;;3.58;0.50;;;7.00;99.90;;;;;;6165122;23;20012;-92
2023/03/14 11:30:04;;;;;;;1.20;0.22;;;6.80;99.90;;;;;;6165741;23;20044;-91
2023/03/14 11:33:07;;;;;;;2.50;0.40;;;6.70;99.90;;;;;;6166005;23;20083;-91
2023/03/14 11:35:49;;;;;;;5.03;0.60;;;6.70;99.90;;;;;;6165362;23;20096;-92
2023/03/14 11:38:33;;;;;;;1.83;0.20;;;6.90;99.90;;;;;;6165808;23;20096;-94
2023/03/14 11:41:00;;;;;;;1.02;0.30;;;7.10;99.90;;;;;;6165762;23;20076;-89
2023/03/14 11:43:52;;;;;;;2.67;0.50;;;7.10;99.90;;;;;;6166590;23;20438;-90
2023/03/14 11:46:30;;;;;;;2.78;0.30;;;7.20;99.90;;;;;;6165116;23;20024;-91
2023/03/14 11:49:28;;;;;;;4.18;0.90;;;7.20;99.90;;;;;;6166065;23;20016;-94
2023/03/14 11:52:02;;;;;;;1.10;0.20;;;7.20;99.90;;;;;;6139889;23;20020;-93
2023/03/14 11:55:07;;;;;;;1.83;0.22;;;7.10;99.90;;;;;;6165028;23;20251;-92
2023/03/14 11:58:24;;;;;;;3.65;0.35;;;7.00;99.90;;;;;;6154789;23;20028;-94
2023/03/14 12:00:52;;;;;;;;;;;7.00;99.90;;;;;;6105517;23;20080;-92
2023/03/14 12:03:35;;;;;;;3.10;0.40;;;7.00;99.90;;;;;;6129899;23;20011;-89
2023/03/14 12:06:22;;;;;;;4.68;0.40;;;7.00;99.90;;;;;;6130342;23;20515;-88
2023/03/14 12:09:00;;;;;;;3.25;0.30;;;7.00;99.90;;;;;;6130856;23;20014;-89
2023/03/14 12:11:59;;;;;;;2.88;0.50;;;7.00;99.90;;;;;;6130452;23;20032;-84
2023/03/14 12:14:26;;;;;;;4.25;0.43;;;6.90;99.90;;;;;;6127835;23;20014;-91
2023/03/14 12:17:22;;;;;;;7.35;0.63;;;6.80;99.90;;;;;;6104233;23;20025;-88
2023/03/14 12:20:06;;;;;;;2.72;0.65;;;6.70;99.90;;;;;;6128774;23;20017;-93
2023/03/14 12:23:12;;;;;;;6.47;0.57;;;6.60;99.90;;;;;;6127889;23;20044;-94
2023/03/14 12:26:49;;;;;;;3.78;0.73;;;6.50;99.90;;;;;;6129631;23;20053;-86
2023/03/14 12:29:16;;;;;;;2.92;0.50;;;6.40;99.90;;;;;;6149106;23;20354;-92
2023/03/14 12:31:43;;;;;;;;;;;6.40;99.90;;;;;;6164502;23;20024;-89
2023/03/14 12:34:09;;;;;;;6.63;0.73;;;6.30;99.90;;;;;;6163998;23;19915;-89
2023/03/14 12:36:50;;;;;;;6.10;0.90;;;6.30;99.90;;;;;;6165733;23;20016;-92
2023/03/14 12:39:49;;;;;;;3.22;0.38;;;6.30;99.90;;;;;;6165131;23;20059;-93
2023/03/14 12:42:54;;;;;;;4.68;0.90;;;6.30;99.90;;;;;;6165830;23;20079;-94
2023/03/14 12:45:28;;;;;;;2.28;0.40;;;6.30;99.90;;;;;;6165509;23;20020;-89
2023/03/14 12:48:01;;;;;;;6.53;0.60;;;6.30;99.90;;;;;;6166018;23;20017;-96
2023/03/14 12:50:55;;;;;;;4.40;0.50;;;6.40;99.90;;;;;;6165584;23;20079;-92
2023/03/14 12:54:16;;;;;;;3.17;0.43;;;6.60;99.90;;;;;;6166548;23;20311;-93
2023/03/14 12:57:26;;;;;;;1.40;0.30;;;6.70;99.90;;;;;;6191536;23;20017;-90
2023/03/14 13:00:00;;;;;;;2.03;0.30;;;6.70;99.90;;;;;;6190432;23;20017;-90
2023/03/14 13:02:39;;;;;;;2.95;0.40;;;6.70;99.90;;;;;;6165012;23;20092;-92
2023/03/14 13:05:17;;;;;;;4.40;0.57;;;6.70;99.90;;;;;;6189730;23;20009;-91
2023/03/14 13:07:44;;;;;;;3.70;0.35;;;6.80;99.90;;;;;;6189753;23;20091;-91
2023/03/14 13:10:09;;;;;;;4.90;0.40;;;6.90;99.90;;;;;;6164055;23;20017;-85
2023/03/14 13:15:33;;;;;;;3.92;0.55;;;6.80;99.90;;;;;;6173468;23;20017;-95
2023/03/14 13:18:09;;;;;;;4.85;0.35;;;6.80;99.90;;;;;;6158070;23;20076;-92
2023/03/14 13:20:56;;;;;;;3.83;0.40;;;6.80;99.90;;;;;;6158122;23;20031;-88
2023/03/14 13:24:06;;;;;;;3.15;0.32;;;6.80;99.90;;;;;;6133838;23;20052;-93
2023/03/14 13:26:53;;;;;;;2.50;0.40;;;6.80;99.90;;;;;;6158295;23;20064;-88
2023/03/14 13:29:20;;;;;;;2.15;0.40;;;6.90;99.90;;;;;;6157127;23;20044;-89
2023/03/14 13:31:48;;;;;;;3.45;0.38;;;6.90;99.90;;;;;;6159279;23;20029;-88
2023/03/14 13:34:14;;;;;;;5.15;0.47;;;6.90;99.90;;;;;;6134715;23;20347;-86
2023/03/14 13:36:40;;;;;;;1.15;0.20;;;6.80;99.90;;;;;;6159297;23;20013;-88
2023/03/14 13:39:28;;;;;;;3.20;0.50;;;6.80;99.90;;;;;;6134748;23;20056;-88
2023/03/14 13:42:01;;;;;;;2.92;0.70;;;6.70;99.90;;;;;;6161535;23;20021;-88
2023/03/14 13:44:32;;;;;;;2.38;0.35;;;6.80;99.90;;;;;;6161146;23;20017;-89
2023/03/14 13:47:04;;;;;;;2.17;0.40;;;6.80;99.90;;;;;;6136161;23;20017;-88
2023/03/14 13:49:33;;;;;;;2.83;0.20;;;6.80;99.90;;;;;;6136065;23;20114;-87
2023/03/14 13:52:54;;;;;;;2.17;0.40;;;6.90;99.90;;;;;;6136485;23;20024;-89
2023/03/14 13:55:35;;;;;;;3.58;0.38;;;6.90;99.90;;;;;;6048369;23;20023;-87
2023/03/14 13:58:32;;;;;;;3.53;0.35;;;6.80;99.90;;;;;;6045292;23;20053;-94
2023/03/14 14:01:11;;;;;;;1.92;0.28;;;6.60;99.90;;;;;;6130639;23;20013;-91
2023/03/14 14:03:39;;;;;;;1.60;0.20;;;6.50;99.90;;;;;;6161830;23;20064;-91
2023/03/14 14:06:30;;;;;;;3.13;0.30;;;6.50;99.90;;;;;;6137210;23;20096;-90
2023/03/14 14:09:09;;;;;;;1.75;0.22;;;6.50;99.90;;;;;;6136932;23;20073;-88
2023/03/14 14:14:20;;;;;;;2.47;0.40;;;6.40;99.90;;;;;;6218240;23;20032;-95
2023/03/14 14:16:47;;;;;;;3.78;0.65;;;6.40;99.90;;;;;;6166907;23;20067;-94
2023/03/14 14:19:14;;;;;;;2.05;0.30;;;6.50;99.90;;;;;;6166570;23;20040;-94
2023/03/14 14:21:41;;;;;;;1.63;0.30;;;6.60;99.90;;;;;;6166781;23;20095;-94
2023/03/14 14:24:12;;;;;;;0.68;0.10;;;6.60;99.90;;;;;;6166602;23;20446;-93
2023/03/14 14:27:16;;;;;;;2.20;0.40;;;6.50;99.90;;;;;;6191611;23;20012;-93
2023/03/14 14:30:54;;;;;;;4.10;0.70;;;6.40;99.90;;;;;;6167638;23;20044;-88
2023/03/14 14:33:22;;;;;;;1.80;0.50;;;6.30;99.90;;;;;;6048068;23;20018;-86